Time;durP1;ratioP1;P1;durP2;ratioP2;P2;SDS_P1;SDS_P2;PMS_P1;PMS_P2;Temp;Humidity;BMP_temperature;BMP_pressure;BME280_temperature;BME280_humidity;BME280_pressure;Samples;Min_cycle;Max_cycle;Signal;HPM_P1;HPM_P2
2023/07/19 00:00:47;;;;;;;;;;;;;;;;;;2202183;59;2086;-23
2023/07/19 00:03:17;;;;;;;;;;;;;;;;;;2202646;66;1732;-23
2023/07/19 00:05:48;;;;;;;;;;;;;;;;;;2203501;58;2095;-22
2023/07/19 00:08:18;;;;;;;;;;;;;;;;;;2202583;66;2024;-22
2023/07/19 00:10:48;;;;;;;;;;;;;;;;;;2202688;66;2091;-23
2023/07/19 00:13:19;;;;;;;;;;;;;;;;;;2202030;59;2041;-22
2023/07/19 00:15:49;;;;;;;;;;;;;;;;;;2202340;59;2529;-23
2023/07/19 00:18:19;;;;;;;;;;;;;;;;;;2202070;59;2182;-23
2023/07/19 00:20:49;;;;;;;;;;;;;;;;;;2202992;66;1965;-23
2023/07/19 00:23:20;;;;;;;;;;;;;;;;;;2202090;66;1959;-23
2023/07/19 00:25:50;;;;;;;;;;;;;;;;;;2200226;59;1961;-22
2023/07/19 00:28:29;;;;;;;;;;;;;;;;;;2202632;66;2130;-23
2023/07/19 00:31:03;;;;;;;;;;;;;;;;;;2202624;66;2005;-22
2023/07/19 00:33:33;;;;;;;;;;;;;;;;;;2203237;66;2741;-22
2023/07/19 00:36:04;;;;;;;;;;;;;;;;;;2202293;66;2200;-22
2023/07/19 00:38:35;;;;;;;;;;;;;;;;;;2202192;59;2773;-22
2023/07/19 00:41:05;;;;;;;;;;;;;;;;;;2202112;66;2567;-23
2023/07/19 00:43:36;;;;;;;;;;;;;;;;;;2202292;66;1907;-22
2023/07/19 00:46:06;;;;;;;;;;;;;;;;;;2201974;58;2106;-23
2023/07/19 00:48:37;;;;;;;;;;;;;;;;;;2204071;66;2540;-23
2023/07/19 00:51:07;;;;;;;;;;;;;;;;;;2202265;59;3243;-22
2023/07/19 00:53:38;;;;;;;;;;;;;;;;;;2202538;59;3167;-23
2023/07/19 00:56:09;;;;;;;;;;;;;;;;;;2201826;66;2060;-23
2023/07/19 00:58:40;;;;;;;;;;;;;;;;;;2202689;66;2667;-23
2023/07/19 01:01:10;;;;;;;;;;;;;;;;;;2202078;59;2744;-23
2023/07/19 01:03:40;;;;;;;;;;;;;;;;;;2203016;58;2110;-22
2023/07/19 01:06:11;;;;;;;;;;;;;;;;;;2202133;59;2122;-23
2023/07/19 01:08:41;;;;;;;;;;;;;;;;;;2203367;66;2607;-22
2023/07/19 01:11:11;;;;;;;;;;;;;;;;;;2202063;59;2623;-23
2023/07/19 01:13:51;;;;;;;;;;;;;;;;;;2202248;66;1987;-23
2023/07/19 01:16:22;;;;;;;;;;;;;;;;;;2199577;66;2789;-22
2023/07/19 01:18:52;;;;;;;;;;;;;;;;;;2199471;66;2228;-23
2023/07/19 01:21:22;;;;;;;;;;;;;;;;;;2202284;66;2194;-23
2023/07/19 01:23:53;;;;;;;;;;;;;;;;;;2203115;66;2034;-23
2023/07/19 01:26:23;;;;;;;;;;;;;;;;;;2202359;59;2515;-23
2023/07/19 01:28:59;;;;;;;;;;;;;;;;;;2202910;66;2006;-23
2023/07/19 01:31:29;;;;;;;;;;;;;;;;;;2202085;66;2496;-23
2023/07/19 01:33:59;;;;;;;;;;;;;;;;;;2204904;66;2055;-23
2023/07/19 01:36:30;;;;;;;;;;;;;;;;;;2201765;66;2031;-23
2023/07/19 01:39:00;;;;;;;;;;;;;;;;;;2202052;66;2450;-22
2023/07/19 01:41:30;;;;;;;;;;;;;;;;;;2202459;66;2188;-23
2023/07/19 01:44:00;;;;;;;;;;;;;;;;;;2199167;66;2241;-23
2023/07/19 01:46:30;;;;;;;;;;;;;;;;;;2201531;59;2691;-22
2023/07/19 01:49:01;;;;;;;;;;;;;;;;;;2202439;66;2238;-23
2023/07/19 01:51:31;;;;;;;;;;;;;;;;;;2202370;59;3176;-23
2023/07/19 01:54:01;;;;;;;;;;;;;;;;;;2201708;59;3347;-22
2023/07/19 01:56:31;;;;;;;;;;;;;;;;;;2202403;59;2121;-23
2023/07/19 01:59:01;;;;;;;;;;;;;;;;;;2201659;66;2011;-23
2023/07/19 02:01:35;;;;;;;;;;;;;;;;;;2203087;59;2308;-23
2023/07/19 02:04:05;;;;;;;;;;;;;;;;;;2198618;58;2219;-23
2023/07/19 02:06:35;;;;;;;;;;;;;;;;;;2203024;59;2441;-23
2023/07/19 02:09:06;;;;;;;;;;;;;;;;;;2203455;66;2490;-23
2023/07/19 02:11:36;;;;;;;;;;;;;;;;;;2204868;59;2666;-23
2023/07/19 02:14:06;;;;;;;;;;;;;;;;;;2203604;66;2089;-23
2023/07/19 02:16:37;;;;;;;;;;;;;;;;;;2202721;66;2209;-23
2023/07/19 02:19:07;;;;;;;;;;;;;;;;;;2202295;66;2373;-23
2023/07/19 02:21:37;;;;;;;;;;;;;;;;;;2202478;66;2167;-23
2023/07/19 02:24:07;;;;;;;;;;;;;;;;;;2203735;66;2733;-23
2023/07/19 02:26:38;;;;;;;;;;;;;;;;;;2203245;59;1990;-23
2023/07/19 02:29:08;;;;;;;;;;;;;;;;;;2201644;66;2619;-23
2023/07/19 02:31:38;;;;;;;;;;;;;;;;;;2202818;59;2121;-23
2023/07/19 02:34:09;;;;;;;;;;;;;;;;;;2202408;66;2025;-22
2023/07/19 02:36:39;;;;;;;;;;;;;;;;;;2203117;66;1958;-22
2023/07/19 02:39:09;;;;;;;;;;;;;;;;;;2199042;66;2103;-23
2023/07/19 02:41:40;;;;;;;;;;;;;;;;;;2202114;59;5176;-23
2023/07/19 02:44:11;;;;;;;;;;;;;;;;;;2202073;66;2569;-23
2023/07/19 02:46:41;;;;;;;;;;;;;;;;;;2200451;58;2715;-23
2023/07/19 02:49:11;;;;;;;;;;;;;;;;;;2199099;66;1997;-23
2023/07/19 02:51:41;;;;;;;;;;;;;;;;;;2202619;59;2116;-23
2023/07/19 02:54:12;;;;;;;;;;;;;;;;;;2213025;58;3323;-23
2023/07/19 02:56:42;;;;;;;;;;;;;;;;;;2202634;66;2529;-22
2023/07/19 02:59:12;;;;;;;;;;;;;;;;;;2202209;66;2094;-23
2023/07/19 03:01:43;;;;;;;;;;;;;;;;;;2202104;59;2757;-23
2023/07/19 03:04:13;;;;;;;;;;;;;;;;;;2202393;58;2568;-23
2023/07/19 03:06:43;;;;;;;;;;;;;;;;;;2202248;66;2148;-23
2023/07/19 03:09:15;;;;;;;;;;;;;;;;;;2202686;66;2044;-23
2023/07/19 03:11:45;;;;;;;;;;;;;;;;;;2203054;59;2653;-23
2023/07/19 03:14:15;;;;;;;;;;;;;;;;;;2201425;66;2037;-22
2023/07/19 03:16:46;;;;;;;;;;;;;;;;;;2202168;66;2269;-22
2023/07/19 03:19:16;;;;;;;;;;;;;;;;;;2199262;66;2102;-23
2023/07/19 03:21:46;;;;;;;;;;;;;;;;;;2202921;66;2028;-23
2023/07/19 03:24:16;;;;;;;;;;;;;;;;;;2201961;66;2026;-23
2023/07/19 03:26:46;;;;;;;;;;;;;;;;;;2202786;59;2079;-23
2023/07/19 03:29:17;;;;;;;;;;;;;;;;;;2204176;66;2073;-22
2023/07/19 03:31:47;;;;;;;;;;;;;;;;;;2201402;59;2496;-23
2023/07/19 03:34:17;;;;;;;;;;;;;;;;;;2202009;66;2705;-22
2023/07/19 03:36:47;;;;;;;;;;;;;;;;;;2202800;66;4063;-22
2023/07/19 03:39:18;;;;;;;;;;;;;;;;;;2203846;66;2070;-22
2023/07/19 03:41:48;;;;;;;;;;;;;;;;;;2203564;66;2007;-23
2023/07/19 03:44:18;;;;;;;;;;;;;;;;;;2202376;66;2762;-23
2023/07/19 03:46:49;;;;;;;;;;;;;;;;;;2204331;66;2052;-23
2023/07/19 03:49:19;;;;;;;;;;;;;;;;;;2200496;66;2530;-22
2023/07/19 03:51:49;;;;;;;;;;;;;;;;;;2203470;59;2093;-22
2023/07/19 03:54:19;;;;;;;;;;;;;;;;;;2199505;59;3383;-23
2023/07/19 03:56:50;;;;;;;;;;;;;;;;;;2204669;59;2480;-22
2023/07/19 03:59:20;;;;;;;;;;;;;;;;;;2204907;66;2163;-23
2023/07/19 04:01:50;;;;;;;;;;;;;;;;;;2201450;59;2649;-22
2023/07/19 04:04:23;;;;;;;;;;;;;;;;;;2202914;58;2175;-23
2023/07/19 04:06:53;;;;;;;;;;;;;;;;;;2203614;59;2553;-23
2023/07/19 04:09:23;;;;;;;;;;;;;;;;;;2202045;66;2709;-23
2023/07/19 04:11:54;;;;;;;;;;;;;;;;;;2203368;59;2032;-22
2023/07/19 04:14:24;;;;;;;;;;;;;;;;;;2203468;66;1940;-22
2023/07/19 04:16:54;;;;;;;;;;;;;;;;;;2202842;66;2118;-23
2023/07/19 04:19:25;;;;;;;;;;;;;;;;;;2203326;66;2423;-23
2023/07/19 04:21:55;;;;;;;;;;;;;;;;;;2202737;66;1976;-23
2023/07/19 04:24:25;;;;;;;;;;;;;;;;;;2202556;66;1834;-23
2023/07/19 04:26:55;;;;;;;;;;;;;;;;;;2204883;59;1875;-23
2023/07/19 04:29:26;;;;;;;;;;;;;;;;;;2203859;66;2165;-23
2023/07/19 04:31:56;;;;;;;;;;;;;;;;;;2204599;64;2143;-23
2023/07/19 04:34:26;;;;;;;;;;;;;;;;;;2209237;66;2112;-23
2023/07/19 04:36:57;;;;;;;;;;;;;;;;;;2204933;66;2292;-23
2023/07/19 04:39:27;;;;;;;;;;;;;;;;;;2201256;66;2590;-23
2023/07/19 04:41:57;;;;;;;;;;;;;;;;;;2203346;66;2992;-23
2023/07/19 04:44:28;;;;;;;;;;;;;;;;;;2201695;58;1955;-23
2023/07/19 04:46:58;;;;;;;;;;;;;;;;;;2199151;66;1944;-23
2023/07/19 04:49:28;;;;;;;;;;;;;;;;;;2203139;59;2187;-23
2023/07/19 04:51:59;;;;;;;;;;;;;;;;;;2202429;59;2156;-22
2023/07/19 04:54:29;;;;;;;;;;;;;;;;;;2202957;59;2445;-23
2023/07/19 04:56:59;;;;;;;;;;;;;;;;;;2203022;59;3205;-23
2023/07/19 04:59:29;;;;;;;;;;;;;;;;;;2202368;66;2065;-23
2023/07/19 05:02:00;;;;;;;;;;;;;;;;;;2203161;59;2517;-23
2023/07/19 05:04:30;;;;;;;;;;;;;;;;;;2199531;59;3520;-23
2023/07/19 05:07:00;;;;;;;;;;;;;;;;;;2202957;59;2065;-23
2023/07/19 05:09:30;;;;;;;;;;;;;;;;;;2202210;66;1789;-23
2023/07/19 05:12:01;;;;;;;;;;;;;;;;;;2203383;59;2521;-23
2023/07/19 05:14:31;;;;;;;;;;;;;;;;;;2202737;59;2439;-23
2023/07/19 05:17:02;;;;;;;;;;;;;;;;;;2203299;66;2573;-23
2023/07/19 05:19:32;;;;;;;;;;;;;;;;;;2203126;66;2795;-23
2023/07/19 05:22:02;;;;;;;;;;;;;;;;;;2199816;66;2061;-23
2023/07/19 05:24:32;;;;;;;;;;;;;;;;;;2202968;59;2179;-23
2023/07/19 05:27:02;;;;;;;;;;;;;;;;;;2202370;66;1796;-23
2023/07/19 05:29:33;;;;;;;;;;;;;;;;;;2203447;66;2477;-23
2023/07/19 05:32:04;;;;;;;;;;;;;;;;;;2203341;59;2171;-23
2023/07/19 05:34:34;;;;;;;;;;;;;;;;;;2199292;66;2461;-23
2023/07/19 05:37:05;;;;;;;;;;;;;;;;;;2202665;59;2696;-23
2023/07/19 05:39:36;;;;;;;;;;;;;;;;;;2199573;66;2086;-23
2023/07/19 05:42:06;;;;;;;;;;;;;;;;;;2201567;59;2387;-23
2023/07/19 05:44:37;;;;;;;;;;;;;;;;;;2202344;58;2946;-23
2023/07/19 05:47:07;;;;;;;;;;;;;;;;;;2203004;66;2043;-23
2023/07/19 05:49:38;;;;;;;;;;;;;;;;;;2198916;66;2045;-23
2023/07/19 05:52:08;;;;;;;;;;;;;;;;;;2202619;59;2480;-23
2023/07/19 05:54:38;;;;;;;;;;;;;;;;;;2203100;66;1997;-23
2023/07/19 05:57:08;;;;;;;;;;;;;;;;;;2201638;59;3377;-23
2023/07/19 05:59:38;;;;;;;;;;;;;;;;;;2201436;59;2172;-23
2023/07/19 06:02:09;;;;;;;;;;;;;;;;;;2202880;66;2115;-23
2023/07/19 06:04:39;;;;;;;;;;;;;;;;;;2202917;58;2642;-23
2023/07/19 06:07:09;;;;;;;;;;;;;;;;;;2202016;59;2091;-23
2023/07/19 06:09:42;;;;;;;;;;;;;;;;;;2203236;66;1996;-23
2023/07/19 06:12:12;;;;;;;;;;;;;;;;;;2202727;59;2026;-23
2023/07/19 06:14:42;;;;;;;;;;;;;;;;;;2198592;59;2552;-23
2023/07/19 06:17:13;;;;;;;;;;;;;;;;;;2197634;66;2516;-23
2023/07/19 06:19:43;;;;;;;;;;;;;;;;;;2202468;66;1995;-23
2023/07/19 06:22:13;;;;;;;;;;;;;;;;;;2203101;66;2091;-23
2023/07/19 06:24:43;;;;;;;;;;;;;;;;;;2205716;66;1812;-23
2023/07/19 06:27:16;;;;;;;;;;;;;;;;;;2199671;59;2461;-23
2023/07/19 06:29:46;;;;;;;;;;;;;;;;;;2201721;59;3482;-23
2023/07/19 06:32:17;;;;;;;;;;;;;;;;;;2202875;59;2701;-23
2023/07/19 06:34:47;;;;;;;;;;;;;;;;;;2202865;66;2029;-23
2023/07/19 06:37:17;;;;;;;;;;;;;;;;;;2198904;59;2175;-23
2023/07/19 06:39:48;;;;;;;;;;;;;;;;;;2202434;66;2122;-25
2023/07/19 06:42:18;;;;;;;;;;;;;;;;;;2201064;59;3794;-23
2023/07/19 06:44:49;;;;;;;;;;;;;;;;;;2200262;58;2356;-23
2023/07/19 06:47:19;;;;;;;;;;;;;;;;;;2202538;59;2115;-23
2023/07/19 06:49:50;;;;;;;;;;;;;;;;;;2201869;59;2895;-23
2023/07/19 06:52:20;;;;;;;;;;;;;;;;;;2202159;59;2662;-23
2023/07/19 06:54:50;;;;;;;;;;;;;;;;;;2201372;59;2527;-23
2023/07/19 06:57:21;;;;;;;;;;;;;;;;;;2197697;59;3308;-23
2023/07/19 06:59:52;;;;;;;;;;;;;;;;;;2203796;59;2675;-23
2023/07/19 07:02:22;;;;;;;;;;;;;;;;;;2200076;60;2315;-23
2023/07/19 07:04:52;;;;;;;;;;;;;;;;;;2203259;58;2669;-23
2023/07/19 07:07:22;;;;;;;;;;;;;;;;;;2202471;66;2253;-23
2023/07/19 07:09:53;;;;;;;;;;;;;;;;;;2202003;66;2515;-23
2023/07/19 07:12:24;;;;;;;;;;;;;;;;;;2199062;59;3007;-23
2023/07/19 07:14:54;;;;;;;;;;;;;;;;;;2202857;66;2305;-23
2023/07/19 07:17:24;;;;;;;;;;;;;;;;;;2201832;66;2117;-23
2023/07/19 07:19:54;;;;;;;;;;;;;;;;;;2202830;66;1973;-23
2023/07/19 07:22:24;;;;;;;;;;;;;;;;;;2201544;59;2485;-23
2023/07/19 07:24:55;;;;;;;;;;;;;;;;;;2202897;66;2067;-23
2023/07/19 07:27:27;;;;;;;;;;;;;;;;;;2202661;59;2510;-23
2023/07/19 07:29:58;;;;;;;;;;;;;;;;;;2199294;66;2054;-23
2023/07/19 07:32:28;;;;;;;;;;;;;;;;;;2202905;59;2329;-23
2023/07/19 07:34:58;;;;;;;;;;;;;;;;;;2202921;67;2028;-23
2023/07/19 07:37:28;;;;;;;;;;;;;;;;;;2203021;66;2726;-23
2023/07/19 07:39:59;;;;;;;;;;;;;;;;;;2200129;66;2456;-23
2023/07/19 07:42:29;;;;;;;;;;;;;;;;;;2203106;66;3404;-23
2023/07/19 07:44:59;;;;;;;;;;;;;;;;;;2197255;58;2097;-23
2023/07/19 07:47:29;;;;;;;;;;;;;;;;;;2202904;66;2015;-23
2023/07/19 07:50:03;;;;;;;;;;;;;;;;;;2203165;59;2512;-23
2023/07/19 07:52:33;;;;;;;;;;;;;;;;;;2202541;59;2239;-23
2023/07/19 07:55:05;;;;;;;;;;;;;;;;;;2199691;59;3155;-23
2023/07/19 07:57:37;;;;;;;;;;;;;;;;;;2201059;59;3699;-24
2023/07/19 08:00:11;;;;;;;;;;;;;;;;;;2201344;59;4563;-24
2023/07/19 08:02:41;;;;;;;;;;;;;;;;;;2197956;59;2410;-24
2023/07/19 08:05:11;;;;;;;;;;;;;;;;;;2201518;58;2711;-24
2023/07/19 08:07:41;;;;;;;;;;;;;;;;;;2201556;59;2149;-24
2023/07/19 08:10:12;;;;;;;;;;;;;;;;;;2201088;59;2312;-24
2023/07/19 08:12:45;;;;;;;;;;;;;;;;;;2200700;59;2576;-24
2023/07/19 08:15:15;;;;;;;;;;;;;;;;;;2212756;58;2264;-24
2023/07/19 08:17:45;;;;;;;;;;;;;;;;;;2201037;59;2711;-24
2023/07/19 08:20:15;;;;;;;;;;;;;;;;;;2201086;59;2464;-22
2023/07/19 08:22:46;;;;;;;;;;;;;;;;;;2202370;59;2493;-22
2023/07/19 08:25:18;;;;;;;;;;;;;;;;;;2198477;66;2328;-22
2023/07/19 08:27:48;;;;;;;;;;;;;;;;;;2201814;59;2530;-22
2023/07/19 08:30:18;;;;;;;;;;;;;;;;;;2202121;59;2545;-22
2023/07/19 08:32:49;;;;;;;;;;;;;;;;;;2202314;66;2592;-22
2023/07/19 08:35:19;;;;;;;;;;;;;;;;;;2202603;60;2648;-22
2023/07/19 08:37:49;;;;;;;;;;;;;;;;;;2202199;59;2478;-22
2023/07/19 08:40:19;;;;;;;;;;;;;;;;;;2202792;59;2663;-22
2023/07/19 08:42:50;;;;;;;;;;;;;;;;;;2207773;59;2759;-23
2023/07/19 08:45:21;;;;;;;;;;;;;;;;;;2212739;58;2021;-22
2023/07/19 08:47:52;;;;;;;;;;;;;;;;;;2215773;59;1818;-22
2023/07/19 08:50:23;;;;;;;;;;;;;;;;;;2213784;58;2262;-22
2023/07/19 08:52:54;;;;;;;;;;;;;;;;;;2209881;59;2133;-22
2023/07/19 08:55:24;;;;;;;;;;;;;;;;;;2212358;59;1772;-22
2023/07/19 08:57:54;;;;;;;;;;;;;;;;;;2212236;66;2068;-22
2023/07/19 09:00:27;;;;;;;;;;;;;;;;;;2208861;58;3215;-22
2023/07/19 09:02:58;;;;;;;;;;;;;;;;;;2212793;59;2294;-22
2023/07/19 09:05:29;;;;;;;;;;;;;;;;;;2212693;59;1965;-22
2023/07/19 09:08:02;;;;;;;;;;;;;;;;;;2211699;59;2526;-22
2023/07/19 09:10:33;;;;;;;;;;;;;;;;;;2210368;59;2162;-21
2023/07/19 09:13:05;;;;;;;;;;;;;;;;;;2211558;59;1996;-21
2023/07/19 09:15:35;;;;;;;;;;;;;;;;;;2212797;59;2080;-21
2023/07/19 09:18:06;;;;;;;;;;;;;;;;;;2212384;59;2883;-21
2023/07/19 09:20:37;;;;;;;;;;;;;;;;;;2212112;58;2009;-21
2023/07/19 09:23:08;;;;;;;;;;;;;;;;;;2211767;59;2250;-21
2023/07/19 09:25:51;;;;;;;;;;;;;;;;;;2212674;66;1973;-21
2023/07/19 09:28:23;;;;;;;;;;;;;;;;;;2211908;66;1972;-21
2023/07/19 09:31:01;;;;;;;;;;;;;;;;;;2207956;59;2244;-21
2023/07/19 09:33:31;;;;;;;;;;;;;;;;;;2212033;66;2264;-21
2023/07/19 09:36:01;;;;;;;;;;;;;;;;;;2211167;66;2082;-21
2023/07/19 09:38:32;;;;;;;;;;;;;;;;;;2211742;66;2778;-21
2023/07/19 09:41:02;;;;;;;;;;;;;;;;;;2211743;58;1809;-21
2023/07/19 09:43:33;;;;;;;;;;;;;;;;;;2212041;59;1760;-21
2023/07/19 09:46:04;;;;;;;;;;;;;;;;;;2211371;59;2335;-21
2023/07/19 09:48:35;;;;;;;;;;;;;;;;;;2212088;66;1881;-21
2023/07/19 09:51:05;;;;;;;;;;;;;;;;;;2210679;59;2057;-21
2023/07/19 09:53:36;;;;;;;;;;;;;;;;;;2211576;58;2789;-21
2023/07/19 09:56:09;;;;;;;;;;;;;;;;;;2211833;66;2369;-21
2023/07/19 09:58:40;;;;;;;;;;;;;;;;;;2211247;66;2227;-21
2023/07/19 10:01:10;;;;;;;;;;;;;;;;;;2209530;59;3437;-21
2023/07/19 10:03:42;;;;;;;;;;;;;;;;;;2211514;59;2286;-21
2023/07/19 10:06:14;;;;;;;;;;;;;;;;;;2209995;58;2132;-21
2023/07/19 10:08:44;;;;;;;;;;;;;;;;;;2211392;66;1862;-21
2023/07/19 10:11:21;;;;;;;;;;;;;;;;;;2210981;66;2096;-21
2023/07/19 10:13:56;;;;;;;;;;;;;;;;;;2210761;59;2470;-21
2023/07/19 10:16:36;;;;;;;;;;;;;;;;;;2211399;58;2685;-21
2023/07/19 10:19:13;;;;;;;;;;;;;;;;;;2210750;66;2034;-21
2023/07/19 10:22:03;;;;;;;;;;;;;;;;;;2211226;58;1919;-21
2023/07/19 10:24:35;;;;;;;;;;;;;;;;;;2210771;66;2776;-22
2023/07/19 10:27:07;;;;;;;;;;;;;;;;;;2211268;59;2004;-22
2023/07/19 10:29:44;;;;;;;;;;;;;;;;;;2211067;66;1949;-22
2023/07/19 10:32:14;;;;;;;;;;;;;;;;;;2211167;59;1975;-22
2023/07/19 10:34:45;;;;;;;;;;;;;;;;;;2212047;59;2273;-22
2023/07/19 10:37:15;;;;;;;;;;;;;;;;;;2212401;66;1929;-22
2023/07/19 10:39:45;;;;;;;;;;;;;;;;;;2213062;59;2023;-22
2023/07/19 10:42:15;;;;;;;;;;;;;;;;;;2212530;58;2535;-22
2023/07/19 10:44:46;;;;;;;;;;;;;;;;;;2204369;59;2287;-22
2023/07/19 10:47:17;;;;;;;;;;;;;;;;;;2210734;66;2135;-22
2023/07/19 10:49:48;;;;;;;;;;;;;;;;;;2211067;66;1708;-22
2023/07/19 10:52:21;;;;;;;;;;;;;;;;;;2212037;59;2014;-22
2023/07/19 10:54:54;;;;;;;;;;;;;;;;;;2212564;59;2100;-22
2023/07/19 10:57:27;;;;;;;;;;;;;;;;;;2212287;59;2397;-22
2023/07/19 10:59:57;;;;;;;;;;;;;;;;;;2211116;59;3120;-22
2023/07/19 11:02:27;;;;;;;;;;;;;;;;;;2211221;66;2898;-22
2023/07/19 11:04:58;;;;;;;;;;;;;;;;;;2212244;59;2118;-22
2023/07/19 11:07:31;;;;;;;;;;;;;;;;;;2213794;66;2364;-22
2023/07/19 11:10:02;;;;;;;;;;;;;;;;;;2212212;59;2044;-22
2023/07/19 11:12:33;;;;;;;;;;;;;;;;;;2208433;59;1967;-22
2023/07/19 11:15:06;;;;;;;;;;;;;;;;;;2213083;59;2219;-22
2023/07/19 11:17:38;;;;;;;;;;;;;;;;;;2213218;59;1937;-22
2023/07/19 11:20:08;;;;;;;;;;;;;;;;;;2210734;66;2319;-22
2023/07/19 11:22:39;;;;;;;;;;;;;;;;;;2212905;59;2474;-22
2023/07/19 11:25:10;;;;;;;;;;;;;;;;;;2207779;59;2619;-22
2023/07/19 11:27:41;;;;;;;;;;;;;;;;;;2212682;59;1953;-22
2023/07/19 11:30:11;;;;;;;;;;;;;;;;;;2209592;66;1538;-23
2023/07/19 11:32:41;;;;;;;;;;;;;;;;;;2212495;66;1743;-22
2023/07/19 11:35:11;;;;;;;;;;;;;;;;;;2211544;66;1876;-22
2023/07/19 11:37:42;;;;;;;;;;;;;;;;;;2213187;59;1969;-22
2023/07/19 11:40:13;;;;;;;;;;;;;;;;;;2211578;59;1748;-22
2023/07/19 11:42:47;;;;;;;;;;;;;;;;;;2212946;58;2243;-22
2023/07/19 11:45:19;;;;;;;;;;;;;;;;;;2212327;59;2272;-22
2023/07/19 11:47:51;;;;;;;;;;;;;;;;;;2212957;59;2081;-22
2023/07/19 11:50:23;;;;;;;;;;;;;;;;;;2206995;59;2380;-22
2023/07/19 11:52:54;;;;;;;;;;;;;;;;;;2211225;59;2392;-22
2023/07/19 11:55:25;;;;;;;;;;;;;;;;;;2210172;59;2506;-22
2023/07/19 11:58:02;;;;;;;;;;;;;;;;;;2211365;58;2084;-22
2023/07/19 12:00:33;;;;;;;;;;;;;;;;;;2212450;59;1899;-22
2023/07/19 12:03:03;;;;;;;;;;;;;;;;;;2206101;59;2979;-22
2023/07/19 12:05:33;;;;;;;;;;;;;;;;;;2211834;59;2194;-22
2023/07/19 12:08:05;;;;;;;;;;;;;;;;;;2211092;66;2105;-22
2023/07/19 12:10:36;;;;;;;;;;;;;;;;;;2211183;58;2064;-22
2023/07/19 12:13:07;;;;;;;;;;;;;;;;;;2211719;59;1820;-22
2023/07/19 12:15:40;;;;;;;;;;;;;;;;;;2212950;66;1760;-21
2023/07/19 12:18:13;;;;;;;;;;;;;;;;;;2210680;59;1932;-21
2023/07/19 12:20:44;;;;;;;;;;;;;;;;;;2212067;59;2025;-21
2023/07/19 12:23:15;;;;;;;;;;;;;;;;;;2211980;66;1849;-21
2023/07/19 12:25:45;;;;;;;;;;;;;;;;;;2213149;59;1618;-21
2023/07/19 12:28:22;;;;;;;;;;;;;;;;;;2211902;59;1932;-21
2023/07/19 12:30:52;;;;;;;;;;;;;;;;;;2212239;59;2266;-21
2023/07/19 12:33:22;;;;;;;;;;;;;;;;;;2212167;59;1959;-22
2023/07/19 12:35:53;;;;;;;;;;;;;;;;;;2212610;66;1822;-21
2023/07/19 12:38:23;;;;;;;;;;;;;;;;;;2211956;66;1933;-21
2023/07/19 12:40:53;;;;;;;;;;;;;;;;;;2212825;66;2402;-21
2023/07/19 12:43:24;;;;;;;;;;;;;;;;;;2212191;59;1927;-21
2023/07/19 12:45:55;;;;;;;;;;;;;;;;;;2212677;59;2039;-21
2023/07/19 12:48:29;;;;;;;;;;;;;;;;;;2212109;66;1863;-21
2023/07/19 12:51:02;;;;;;;;;;;;;;;;;;2207848;59;2097;-21
2023/07/19 12:53:33;;;;;;;;;;;;;;;;;;2212227;59;2049;-21
2023/07/19 12:56:03;;;;;;;;;;;;;;;;;;2211892;59;1943;-21
2023/07/19 12:58:33;;;;;;;;;;;;;;;;;;2211733;59;2446;-21
2023/07/19 13:01:04;;;;;;;;;;;;;;;;;;2209148;59;1692;-21
2023/07/19 13:03:34;;;;;;;;;;;;;;;;;;2211870;59;3292;-21
2023/07/19 13:06:04;;;;;;;;;;;;;;;;;;2211874;59;3222;-21
2023/07/19 13:08:35;;;;;;;;;;;;;;;;;;2212161;59;2027;-21
2023/07/19 13:11:05;;;;;;;;;;;;;;;;;;2210864;66;2235;-21
2023/07/19 13:13:35;;;;;;;;;;;;;;;;;;2213086;59;1991;-21
2023/07/19 13:16:06;;;;;;;;;;;;;;;;;;2213294;66;1780;-21
2023/07/19 13:18:36;;;;;;;;;;;;;;;;;;2213424;58;2268;-21
2023/07/19 13:21:06;;;;;;;;;;;;;;;;;;2212954;58;1980;-21
2023/07/19 13:23:38;;;;;;;;;;;;;;;;;;2212105;58;2124;-21
2023/07/19 13:26:08;;;;;;;;;;;;;;;;;;2212350;58;2007;-21
2023/07/19 13:28:39;;;;;;;;;;;;;;;;;;2207564;67;1886;-21
2023/07/19 13:31:10;;;;;;;;;;;;;;;;;;2210561;59;2452;-21
2023/07/19 13:33:40;;;;;;;;;;;;;;;;;;2212130;59;2068;-21
2023/07/19 13:36:11;;;;;;;;;;;;;;;;;;2210282;59;2589;-21
2023/07/19 13:38:42;;;;;;;;;;;;;;;;;;2211525;66;2078;-20
2023/07/19 13:41:12;;;;;;;;;;;;;;;;;;2212368;59;3199;-21
2023/07/19 13:43:43;;;;;;;;;;;;;;;;;;2213524;59;1918;-21
2023/07/19 13:46:13;;;;;;;;;;;;;;;;;;2212437;59;1810;-21
2023/07/19 13:48:43;;;;;;;;;;;;;;;;;;2212652;59;2194;-21
2023/07/19 13:51:14;;;;;;;;;;;;;;;;;;2207769;59;2652;-21
2023/07/19 13:53:44;;;;;;;;;;;;;;;;;;2212510;59;1930;-21
2023/07/19 13:56:15;;;;;;;;;;;;;;;;;;2211706;59;1862;-21
2023/07/19 13:58:45;;;;;;;;;;;;;;;;;;2209003;59;2610;-21
2023/07/19 14:01:16;;;;;;;;;;;;;;;;;;2211720;59;2030;-21
2023/07/19 14:03:46;;;;;;;;;;;;;;;;;;2207902;59;3158;-21
2023/07/19 14:06:16;;;;;;;;;;;;;;;;;;2210620;59;3585;-21
2023/07/19 14:08:46;;;;;;;;;;;;;;;;;;2211048;59;2973;-21
2023/07/19 14:11:16;;;;;;;;;;;;;;;;;;2211552;59;2116;-21
2023/07/19 14:13:49;;;;;;;;;;;;;;;;;;2211937;66;2558;-21
2023/07/19 14:16:19;;;;;;;;;;;;;;;;;;2211935;59;1774;-21
2023/07/19 14:18:49;;;;;;;;;;;;;;;;;;2213322;59;2006;-21
2023/07/19 14:21:19;;;;;;;;;;;;;;;;;;2212722;66;2328;-21
2023/07/19 14:23:50;;;;;;;;;;;;;;;;;;2211680;66;1905;-21
2023/07/19 14:26:20;;;;;;;;;;;;;;;;;;2210760;59;2497;-21
2023/07/19 14:28:50;;;;;;;;;;;;;;;;;;2211459;59;2838;-21
2023/07/19 14:31:20;;;;;;;;;;;;;;;;;;2209947;59;2607;-21
2023/07/19 14:33:51;;;;;;;;;;;;;;;;;;2213402;66;2356;-21
2023/07/19 14:36:21;;;;;;;;;;;;;;;;;;2210302;59;2465;-21
2023/07/19 14:38:51;;;;;;;;;;;;;;;;;;2208533;66;2420;-21
2023/07/19 14:41:23;;;;;;;;;;;;;;;;;;2209451;58;2517;-21
2023/07/19 14:43:53;;;;;;;;;;;;;;;;;;2212699;58;2404;-21
2023/07/19 14:46:23;;;;;;;;;;;;;;;;;;2210732;59;2439;-21
2023/07/19 14:48:53;;;;;;;;;;;;;;;;;;2211853;66;2304;-21
2023/07/19 14:51:24;;;;;;;;;;;;;;;;;;2211103;59;2799;-21
2023/07/19 14:53:54;;;;;;;;;;;;;;;;;;2212539;59;2048;-21
2023/07/19 14:56:24;;;;;;;;;;;;;;;;;;2213070;59;2391;-21
2023/07/19 14:58:55;;;;;;;;;;;;;;;;;;2213039;58;2320;-21
2023/07/19 15:01:25;;;;;;;;;;;;;;;;;;2212392;59;2174;-21
2023/07/19 15:03:57;;;;;;;;;;;;;;;;;;2211221;59;2955;-21
2023/07/19 15:06:29;;;;;;;;;;;;;;;;;;2211578;59;3612;-21
2023/07/19 15:08:59;;;;;;;;;;;;;;;;;;2211322;59;2369;-21
2023/07/19 15:11:29;;;;;;;;;;;;;;;;;;2210914;59;1819;-21
2023/07/19 15:13:59;;;;;;;;;;;;;;;;;;2211252;66;1774;-21
2023/07/19 15:16:31;;;;;;;;;;;;;;;;;;2211627;66;1961;-21
2023/07/19 15:19:02;;;;;;;;;;;;;;;;;;2211749;66;2324;-21
2023/07/19 15:21:32;;;;;;;;;;;;;;;;;;2212617;66;1735;-21
2023/07/19 15:24:03;;;;;;;;;;;;;;;;;;2206926;59;1863;-21
2023/07/19 15:26:33;;;;;;;;;;;;;;;;;;2211193;59;2440;-21
2023/07/19 15:29:03;;;;;;;;;;;;;;;;;;2209502;59;2193;-21
2023/07/19 15:31:33;;;;;;;;;;;;;;;;;;2211288;59;2040;-21
2023/07/19 15:34:04;;;;;;;;;;;;;;;;;;2209517;66;1763;-21
2023/07/19 15:36:34;;;;;;;;;;;;;;;;;;2211720;66;2198;-21
2023/07/19 15:39:04;;;;;;;;;;;;;;;;;;2211335;59;2402;-21
2023/07/19 15:41:34;;;;;;;;;;;;;;;;;;2208212;59;1764;-21
2023/07/19 15:44:05;;;;;;;;;;;;;;;;;;2211824;66;2508;-21
2023/07/19 15:46:35;;;;;;;;;;;;;;;;;;2211964;59;2027;-21
2023/07/19 15:49:05;;;;;;;;;;;;;;;;;;2210260;59;2886;-21
2023/07/19 15:51:37;;;;;;;;;;;;;;;;;;2211168;59;2175;-21
2023/07/19 15:54:07;;;;;;;;;;;;;;;;;;2211103;59;2160;-21
2023/07/19 15:56:38;;;;;;;;;;;;;;;;;;2212327;59;2156;-21
2023/07/19 15:59:08;;;;;;;;;;;;;;;;;;2212262;66;1927;-21
2023/07/19 16:01:38;;;;;;;;;;;;;;;;;;2213218;59;2184;-21
2023/07/19 16:04:09;;;;;;;;;;;;;;;;;;2211779;59;1927;-21
2023/07/19 16:06:39;;;;;;;;;;;;;;;;;;2212009;59;3326;-21
2023/07/19 16:09:09;;;;;;;;;;;;;;;;;;2210800;66;2809;-21
2023/07/19 16:11:40;;;;;;;;;;;;;;;;;;2212024;59;1981;-21
2023/07/19 16:14:10;;;;;;;;;;;;;;;;;;2211593;66;1993;-20
2023/07/19 16:16:40;;;;;;;;;;;;;;;;;;2208773;66;1810;-21
2023/07/19 16:19:11;;;;;;;;;;;;;;;;;;2211587;58;2410;-20
2023/07/19 16:21:41;;;;;;;;;;;;;;;;;;2211757;66;1758;-21
2023/07/19 16:24:11;;;;;;;;;;;;;;;;;;2210864;58;2939;-20
2023/07/19 16:26:42;;;;;;;;;;;;;;;;;;2209660;59;2653;-21
2023/07/19 16:29:12;;;;;;;;;;;;;;;;;;2211122;59;2136;-20
2023/07/19 16:31:42;;;;;;;;;;;;;;;;;;2212239;59;1954;-20
2023/07/19 16:34:12;;;;;;;;;;;;;;;;;;2212465;66;1635;-21
2023/07/19 16:36:42;;;;;;;;;;;;;;;;;;2212140;59;2784;-21
2023/07/19 16:39:13;;;;;;;;;;;;;;;;;;2205720;66;1990;-21
2023/07/19 16:41:43;;;;;;;;;;;;;;;;;;2212776;58;1828;-21
2023/07/19 16:44:13;;;;;;;;;;;;;;;;;;2206562;66;1852;-20
2023/07/19 16:46:44;;;;;;;;;;;;;;;;;;2213585;59;1865;-21
2023/07/19 16:49:14;;;;;;;;;;;;;;;;;;2212799;59;1771;-21
2023/07/19 16:51:45;;;;;;;;;;;;;;;;;;2213158;59;2008;-21
2023/07/19 16:54:15;;;;;;;;;;;;;;;;;;2212930;59;2175;-21
2023/07/19 16:56:46;;;;;;;;;;;;;;;;;;2213948;59;1757;-21
2023/07/19 16:59:16;;;;;;;;;;;;;;;;;;2211893;59;2284;-21
2023/07/19 17:01:46;;;;;;;;;;;;;;;;;;2212862;59;2035;-21
2023/07/19 17:04:16;;;;;;;;;;;;;;;;;;2212401;59;1820;-21
2023/07/19 17:06:46;;;;;;;;;;;;;;;;;;2211462;66;3079;-21
2023/07/19 17:09:17;;;;;;;;;;;;;;;;;;2211029;66;3283;-21
2023/07/19 17:11:47;;;;;;;;;;;;;;;;;;2211688;59;2436;-21
2023/07/19 17:14:17;;;;;;;;;;;;;;;;;;2210900;59;2281;-21
2023/07/19 17:16:48;;;;;;;;;;;;;;;;;;2212337;66;2165;-21
2023/07/19 17:19:18;;;;;;;;;;;;;;;;;;2211377;66;1932;-21
2023/07/19 17:21:48;;;;;;;;;;;;;;;;;;2212206;66;1839;-21
2023/07/19 17:24:18;;;;;;;;;;;;;;;;;;2211203;66;1867;-21
2023/07/19 17:26:48;;;;;;;;;;;;;;;;;;2211660;59;1793;-21